Flight Track Log - Related Links

Times and Time Zones

All times are in EDT time to prevent confusion due to time zone crossing. See the EMD24 flight status page for this flight to view local times or setup timezone preferences in your user account.

Time Position Orientation Groundspeed Altitude Reporting Facility
EDT Latitude Longitude Course Direction KTS MPH feet Rate Location/Type
Thu 06:46:23 PM 40.2333 -105.0833 14° North 210 242 7,100  Level Denver TRACON
Thu 06:47:17 PM 40.2833 -105.0667 14° North 231 266 6,900 396 Descending Denver TRACON
Thu 06:48:09 PM 40.3050 -105.0047 65° Northeast 207 238 7,800 895 Climbing Denver Center
Thu 06:49:11 PM 40.2906 -104.9378 106° East 191 220 8,600 576 Climbing Denver Center
Thu 06:50:14 PM 40.2758 -104.8664 105° East 188 216 9,000 192 Climbing Denver Center
Thu 06:51:16 PM 40.2625 -104.7906 103° East 208 239 9,000  Level Denver Center
Thu 06:52:18 PM 40.2483 -104.7078 103° East 216 249 9,000 435 Level Denver Center
Thu 06:53:20 PM 40.2369 -104.6314 101° East 215 247 9,900 1,113 Climbing Denver Center
Thu 06:54:22 PM 40.2283 -104.5717 101° East 174 200 11,300 1,065 Climbing Denver Center
Thu 06:55:24 PM 40.2194 -104.5069 100° East 168 193 12,100 339 Climbing Denver Center
Thu 06:56:26 PM 40.1975 -104.4353 112° Southeast 207 238 12,000 -97 Descending Denver Center
Thu 06:57:28 PM 40.1742 -104.3536 110° East 221 254 11,900  Descending Denver Center
Thu 06:58:42 PM 40.1522 -104.2781 111° Southeast 222 255 12,000  Climbing Denver Center
Thu 06:59:45 PM 40.1272 -104.1847 109° East 221 254 11,900 -44 Descending Denver Center
Thu 07:00:59 PM 40.1033 -104.1050 111° Southeast 218 251 11,900 353 Level Denver Center
Thu 07:02:01 PM 40.0764 -104.0167 112° Southeast 213 245 12,700 532 Climbing Denver Center
Thu 07:03:03 PM 40.0592 -103.9511 109° East 196 226 13,000 1,200 Climbing Denver Center
Thu 07:04:06 PM 40.0375 -103.8867 114° Southeast 178 205 15,200 1,742 Climbing Denver Center
Thu 07:05:07 PM 40.0228 -103.8333 110° East 159 183 16,600 927 Climbing Denver Center
Thu 07:06:09 PM 40.0039 -103.7669 110° East 183 211 17,100 240 Climbing Denver Center
Thu 07:07:12 PM 39.9819 -103.6994 113° Southeast 213 245 17,100  Level Denver Center
Thu 07:08:14 PM 39.9586 -103.6214 111° Southeast 229 264 17,100  Level Denver Center
Thu 07:09:16 PM 39.9314 -103.5261 110° East 234 269 17,100  Level Denver Center
Thu 07:10:18 PM 39.9069 -103.4431 111° Southeast 243 280 17,100 -44 Level Denver Center
Thu 07:11:32 PM 39.8847 -103.3611 109° East 241 277 17,000  Descending Denver Center
Thu 07:12:34 PM 39.8586 -103.2661 110° East 234 269 17,100 48 Climbing Denver Center
Thu 07:13:36 PM 39.8322 -103.1894 114° Southeast 232 267 17,100  Level Denver Center
Thu 07:14:38 PM 39.8069 -103.1075 112° Southeast 239 275 17,100 -48 Level Denver Center
Thu 07:15:40 PM 39.7761 -103.0103 112° Southeast 243 280 17,000 -48 Descending Denver Center
Thu 07:16:42 PM 39.7506 -102.9281 112° Southeast 245 282 17,000  Level Denver Center
Thu 07:17:45 PM 39.7275 -102.8467 110° East 242 278 17,000 -48 Level Denver Center
Thu 07:18:47 PM 39.7014 -102.7661 113° Southeast 241 277 16,900 -48 Descending Denver Center
Thu 07:19:49 PM 39.6767 -102.6822 111° Southeast 244 281 16,900  Level Denver Center
Thu 07:20:50 PM 39.6556 -102.6053 110° East 239 275 16,900 48 Level Denver Center
Thu 07:21:53 PM 39.6294 -102.5144 110° East 241 277 17,000  Climbing Denver Center
Thu 07:22:55 PM 39.6028 -102.4253 111° Southeast 239 275 16,900 -48 Descending Denver Center
Thu 07:23:57 PM 39.5792 -102.3489 112° Southeast 238 274 16,900 -145 Level Denver Center
Thu 07:24:59 PM 39.5492 -102.2614 114° Southeast 237 273 16,600 -750 Descending Denver Center
Thu 07:26:13 PM 39.5222 -102.1744 112° Southeast 264 304 15,200 -1,358 Descending Denver Center
Thu 07:27:16 PM 39.4878 -102.0589 111° Southeast 270 311 13,500 -1,488 Descending Denver Center
Thu 07:28:18 PM 39.4622 -101.9753 112° Southeast 267 307 12,100 -1,306 Descending Denver Center
Thu 07:29:20 PM 39.4331 -101.8792 111° Southeast 261 300 10,800 -1,258 Descending Denver Center
Thu 07:30:22 PM 39.4050 -101.8025 115° Southeast 256 295 9,500 -1,597 Descending Denver Center
Thu 07:31:24 PM 39.3600 -101.7428 134° Southeast 227 261 7,500 -1,016 Descending Denver Center
Thu 07:32:26 PM 39.3142 -101.7039 147° Southeast 207 238 7,400 -97 Descending Denver Center
Thu 07:34:00 PM 39.3667 -101.6833 104° East  Level FlightAware

Login

Don't have an account? Register now (free) for customized features, flight alerts, and more!